createdAt,value
2022-12-17T00:02:18.591Z,40.47
2022-12-17T00:05:04.498Z,37.40
2022-12-17T00:07:50.201Z,47.57
2022-12-17T00:10:36.426Z,50.30
2022-12-17T00:13:22.684Z,43.37
2022-12-17T00:16:10.692Z,49.67
2022-12-17T00:18:57.792Z,48.43
2022-12-17T00:21:48.911Z,45.60
2022-12-17T00:24:34.594Z,44.70
2022-12-17T00:27:34.632Z,47.23
2022-12-17T00:30:20.651Z,44.20
2022-12-17T00:33:06.240Z,42.50
2022-12-17T00:35:53.059Z,46.30
2022-12-17T00:38:39.097Z,38.30
2022-12-17T00:41:25.099Z,35.33
2022-12-17T00:44:11.222Z,34.67
2022-12-17T00:46:56.981Z,34.80
2022-12-17T00:49:44.745Z,33.70
2022-12-17T00:52:31.927Z,36.03
2022-12-17T00:55:17.838Z,35.57
2022-12-17T00:58:03.615Z,39.50
2022-12-17T01:00:49.578Z,35.73
2022-12-17T01:03:35.473Z,33.53
2022-12-17T01:06:27.613Z,34.93
2022-12-17T01:09:15.646Z,36.07
2022-12-17T01:12:01.127Z,36.43
2022-12-17T01:14:47.101Z,35.37
2022-12-17T01:17:32.953Z,35.60
2022-12-17T01:20:19.327Z,37.37
2022-12-17T01:23:06.101Z,36.77
2022-12-17T01:25:53.340Z,37.67
2022-12-17T01:28:42.376Z,37.47
2022-12-17T01:31:34.286Z,35.83
2022-12-17T01:34:20.784Z,35.87
2022-12-17T01:37:06.800Z,36.07
2022-12-17T01:39:52.809Z,34.60
2022-12-17T01:42:40.078Z,34.07
2022-12-17T01:45:30.437Z,33.30
2022-12-17T01:48:22.813Z,33.53
2022-12-17T01:51:13.602Z,33.17
2022-12-17T01:54:05.052Z,33.33
2022-12-17T01:56:51.396Z,31.07
2022-12-17T01:59:44.096Z,32.13
2022-12-17T02:02:29.831Z,31.97
2022-12-17T02:05:16.501Z,31.10
2022-12-17T02:08:13.405Z,32.47
2022-12-17T02:11:07.503Z,33.00
2022-12-17T02:13:58.582Z,33.60
2022-12-17T02:16:53.684Z,32.90
2022-12-17T02:19:53.254Z,33.57
2022-12-17T02:22:46.336Z,35.73
2022-12-17T02:25:39.981Z,35.07
2022-12-17T02:28:28.622Z,36.67
2022-12-17T02:31:17.240Z,36.67
2022-12-17T02:34:03.474Z,36.47
2022-12-17T02:36:53.191Z,37.40
2022-12-17T02:39:45.279Z,38.67
2022-12-17T02:42:32.250Z,39.40
2022-12-17T02:45:19.726Z,39.93
2022-12-17T02:48:07.854Z,39.77
2022-12-17T02:50:54.062Z,39.23
2022-12-17T02:53:40.214Z,45.67
2022-12-17T02:56:26.007Z,42.80
2022-12-17T02:59:23.114Z,42.20
2022-12-17T03:02:10.680Z,43.73
2022-12-17T03:05:02.974Z,45.27
2022-12-17T03:07:56.392Z,42.80
2022-12-17T03:10:41.910Z,44.80
2022-12-17T03:13:27.521Z,44.23
2022-12-17T03:16:13.490Z,45.83
2022-12-17T03:19:01.192Z,43.03
2022-12-17T03:21:46.851Z,46.57
2022-12-17T03:24:32.507Z,43.33
2022-12-17T03:27:18.803Z,47.30
2022-12-17T03:30:04.868Z,49.47
2022-12-17T03:33:02.176Z,49.53
2022-12-17T03:35:49.732Z,48.97
2022-12-17T03:38:36.143Z,46.23
2022-12-17T03:41:21.775Z,45.03
2022-12-17T03:44:08.060Z,49.97
2022-12-17T03:46:53.773Z,54.70
2022-12-17T03:49:39.981Z,45.30
2022-12-17T03:52:27.401Z,47.07
2022-12-17T03:55:13.698Z,44.13
2022-12-17T03:57:59.980Z,41.83
2022-12-17T04:00:45.796Z,46.87
2022-12-17T04:03:32.046Z,49.10
2022-12-17T04:06:18.236Z,47.83
2022-12-17T04:09:05.719Z,43.13
2022-12-17T04:11:51.465Z,40.27
2022-12-17T04:14:36.998Z,41.60
2022-12-17T04:17:22.793Z,35.70
2022-12-17T04:20:09.041Z,37.40
2022-12-17T04:22:54.577Z,40.70
2022-12-17T04:25:41.550Z,43.63
2022-12-17T04:28:35.674Z,42.17
2022-12-17T04:31:21.619Z,38.90
2022-12-17T04:34:04.073Z,41.33
2022-12-17T04:36:50.339Z,37.83
2022-12-17T04:39:36.562Z,36.27
2022-12-17T04:42:26.757Z,34.07
2022-12-17T04:45:12.559Z,36.93
2022-12-17T04:47:58.444Z,40.33
2022-12-17T04:50:44.327Z,40.40
2022-12-17T04:53:30.612Z,38.60
2022-12-17T04:56:16.398Z,37.67
2022-12-17T04:59:05.460Z,41.00
2022-12-17T05:01:51.350Z,38.87
2022-12-17T05:04:37.069Z,37.30
2022-12-17T05:07:23.068Z,44.07
2022-12-17T05:10:09.355Z,38.90
2022-12-17T05:12:55.076Z,38.40
2022-12-17T05:15:42.083Z,42.50
2022-12-17T05:18:28.750Z,41.70
2022-12-17T05:21:14.244Z,41.17
2022-12-17T05:24:00.469Z,37.00
2022-12-17T05:26:47.449Z,39.13
2022-12-17T05:29:33.490Z,41.50
2022-12-17T05:32:20.776Z,38.83
2022-12-17T05:35:06.330Z,40.03
2022-12-17T05:37:51.926Z,38.77
2022-12-17T05:40:37.686Z,41.23
2022-12-17T05:43:25.557Z,39.93
2022-12-17T05:46:11.207Z,38.13
2022-12-17T05:48:58.162Z,39.87
2022-12-17T05:51:43.911Z,40.03
2022-12-17T05:54:29.593Z,39.40
2022-12-17T05:57:15.328Z,38.63
2022-12-17T06:00:01.377Z,35.57
2022-12-17T06:02:47.209Z,36.47
2022-12-17T06:05:34.765Z,35.30
2022-12-17T06:08:25.489Z,38.20
2022-12-17T06:11:11.674Z,38.53
2022-12-17T06:13:57.823Z,36.83
2022-12-17T06:16:43.486Z,35.57
2022-12-17T06:19:29.200Z,34.00
2022-12-17T06:22:16.497Z,33.53
2022-12-17T06:25:02.468Z,35.10
2022-12-17T06:27:48.559Z,34.33
2022-12-17T06:30:34.680Z,35.57
2022-12-17T06:33:24.780Z,35.23
2022-12-17T06:36:18.017Z,34.63
2022-12-17T06:39:08.746Z,37.97
2022-12-17T06:42:00.525Z,34.27
2022-12-17T06:44:47.832Z,36.23
2022-12-17T06:47:33.931Z,33.80
2022-12-17T06:50:19.573Z,35.03
2022-12-17T06:53:07.389Z,32.07
2022-12-17T06:55:54.251Z,32.83
2022-12-17T06:58:40.070Z,34.10
2022-12-17T07:01:25.840Z,35.17
2022-12-17T07:04:11.719Z,33.10
2022-12-17T07:06:57.483Z,33.63
2022-12-17T07:09:43.353Z,43.27
2022-12-17T07:12:30.342Z,36.23
2022-12-17T07:15:16.103Z,35.57
2022-12-17T07:18:01.958Z,37.23
2022-12-17T07:20:47.411Z,37.90
2022-12-17T07:23:33.257Z,49.80
2022-12-17T07:26:19.216Z,40.93
2022-12-17T07:29:06.712Z,38.10
2022-12-17T07:31:52.521Z,37.43
2022-12-17T07:34:38.324Z,37.43
2022-12-17T07:37:24.103Z,40.97
2022-12-17T07:40:09.922Z,43.20
2022-12-17T07:42:57.149Z,41.93
2022-12-17T07:45:44.429Z,40.17
2022-12-17T07:48:33.217Z,39.83
2022-12-17T07:51:18.849Z,37.23
2022-12-17T07:54:04.516Z,33.03
2022-12-17T07:56:55.384Z,34.33
2022-12-17T07:59:41.272Z,39.63
2022-12-17T08:02:29.967Z,36.30
2022-12-17T08:05:15.870Z,34.27
2022-12-17T08:08:01.504Z,39.33
2022-12-17T08:10:47.293Z,37.93
2022-12-17T08:13:33.483Z,34.43
2022-12-17T08:16:19.331Z,56.97
2022-12-17T08:19:06.448Z,35.13
2022-12-17T08:21:52.298Z,34.00
2022-12-17T08:24:38.406Z,34.40
2022-12-17T08:27:24.037Z,36.23
2022-12-17T08:30:09.924Z,38.73
2022-12-17T08:32:55.350Z,35.10
2022-12-17T08:35:42.835Z,36.50
2022-12-17T08:38:28.474Z,34.67
2022-12-17T08:41:14.848Z,45.10
2022-12-17T08:44:00.455Z,46.20
2022-12-17T08:46:46.188Z,36.47
2022-12-17T08:49:31.777Z,32.80
2022-12-17T08:52:19.357Z,33.83
2022-12-17T08:55:19.473Z,32.40
2022-12-17T08:58:11.733Z,31.80
2022-12-17T09:00:57.967Z,32.30
2022-12-17T09:03:58.458Z,33.93
2022-12-17T09:06:44.129Z,31.07
2022-12-17T09:09:31.055Z,30.60
2022-12-17T09:12:17.056Z,29.63
2022-12-17T09:15:02.657Z,30.97
2022-12-17T09:17:48.358Z,30.03
2022-12-17T09:20:33.829Z,29.10
2022-12-17T09:23:19.578Z,26.33
2022-12-17T09:26:12.327Z,22.93
2022-12-17T09:28:57.986Z,22.77
2022-12-17T09:31:44.242Z,24.37
2022-12-17T09:34:30.574Z,25.33
2022-12-17T09:37:16.229Z,28.83
2022-12-17T09:40:02.049Z,29.13
2022-12-17T09:42:59.947Z,36.27
2022-12-17T09:45:56.696Z,26.77
2022-12-17T09:48:49.005Z,25.40
2022-12-17T09:51:40.810Z,27.83
2022-12-17T09:54:35.073Z,31.87
2022-12-17T09:57:23.541Z,24.77
2022-12-17T10:00:10.654Z,24.73
2022-12-17T10:02:58.497Z,25.87
2022-12-17T10:05:47.764Z,22.37
2022-12-17T10:08:37.243Z,21.00
2022-12-17T10:11:37.274Z,23.27
2022-12-17T10:14:31.084Z,24.50
2022-12-17T10:17:18.046Z,27.63
2022-12-17T10:20:07.709Z,25.83
2022-12-17T10:23:02.316Z,27.10
2022-12-17T10:25:48.062Z,25.27
2022-12-17T10:28:36.723Z,26.67
2022-12-17T10:31:28.178Z,26.77
2022-12-17T10:34:16.449Z,27.30
2022-12-17T10:37:07.621Z,27.40
2022-12-17T10:39:53.883Z,27.77
2022-12-17T10:42:42.662Z,25.23
2022-12-17T10:45:42.882Z,25.30
2022-12-17T10:48:38.138Z,25.83
2022-12-17T10:51:37.661Z,26.23
2022-12-17T10:54:36.707Z,26.70
2022-12-17T10:57:25.915Z,28.60
2022-12-17T11:00:13.100Z,29.00
2022-12-17T11:03:14.854Z,35.88
2022-12-17T11:06:00.785Z,54.80
2022-12-17T11:08:50.043Z,24.57
2022-12-17T11:11:35.903Z,22.70
2022-12-17T11:14:24.467Z,26.37
2022-12-17T11:17:12.926Z,25.33
2022-12-17T11:20:04.627Z,25.40
2022-12-17T11:23:08.526Z,25.13
2022-12-17T11:26:01.772Z,32.13
2022-12-17T11:28:51.908Z,38.53
2022-12-17T11:31:54.333Z,37.10
2022-12-17T11:34:48.191Z,31.03
2022-12-17T11:37:37.970Z,28.00
2022-12-17T11:40:39.493Z,31.23
2022-12-17T11:43:35.732Z,26.57
2022-12-17T11:46:32.482Z,26.80
2022-12-17T11:49:28.371Z,28.80
2022-12-17T11:52:23.869Z,27.37
2022-12-17T11:55:20.661Z,28.03
2022-12-17T11:58:13.758Z,28.70
2022-12-17T12:01:09.685Z,32.53
2022-12-17T12:04:09.337Z,25.07
2022-12-17T12:07:04.151Z,25.30
2022-12-17T12:09:55.692Z,25.93
2022-12-17T12:12:57.083Z,26.70
2022-12-17T12:15:49.913Z,25.90
2022-12-17T12:18:46.222Z,25.53
2022-12-17T12:21:51.603Z,27.77
2022-12-17T12:24:50.317Z,26.50
2022-12-17T12:27:45.482Z,26.70
2022-12-17T12:30:35.728Z,24.30
2022-12-17T12:33:29.997Z,26.57
2022-12-17T12:36:21.869Z,25.70
2022-12-17T12:39:11.705Z,24.27
2022-12-17T12:42:13.911Z,26.50
2022-12-17T12:45:13.717Z,26.37
2022-12-17T12:48:07.777Z,26.43
2022-12-17T12:51:04.057Z,29.23
2022-12-17T12:53:50.934Z,28.07
2022-12-17T12:56:48.325Z,27.47
2022-12-17T12:59:44.666Z,29.13
2022-12-17T13:02:46.248Z,31.97
2022-12-17T13:05:34.479Z,31.53
2022-12-17T13:08:04.945Z,28.67
2022-12-17T13:10:35.830Z,30.47
2022-12-17T13:13:14.511Z,32.60
2022-12-17T13:15:48.065Z,30.53
2022-12-17T13:18:24.131Z,29.73
2022-12-17T13:21:04.464Z,30.30
2022-12-17T13:23:36.033Z,32.03
2022-12-17T13:26:16.674Z,31.97
2022-12-17T13:28:49.753Z,30.07
2022-12-17T13:31:22.816Z,31.40
2022-12-17T13:34:00.946Z,31.30
2022-12-17T13:36:35.978Z,32.23
2022-12-17T13:39:09.747Z,32.50
2022-12-17T13:41:39.642Z,33.03
2022-12-17T13:44:21.208Z,39.93
2022-12-17T13:46:54.628Z,34.80
2022-12-17T13:49:24.622Z,36.67
2022-12-17T13:52:07.964Z,34.00
2022-12-17T13:54:40.332Z,33.80
2022-12-17T13:57:11.878Z,32.90
2022-12-17T13:59:40.333Z,33.53
2022-12-17T14:02:27.218Z,34.13
2022-12-17T14:04:59.103Z,39.13
2022-12-17T14:07:34.825Z,34.73
2022-12-17T14:10:05.489Z,32.57
2022-12-17T14:12:35.548Z,35.23
2022-12-17T14:15:08.523Z,46.00
2022-12-17T14:17:41.865Z,37.60
2022-12-17T14:20:15.797Z,35.37
2022-12-17T14:22:51.299Z,38.23
2022-12-17T14:25:21.790Z,33.27
2022-12-17T14:27:57.782Z,31.60
2022-12-17T14:30:40.266Z,33.93
2022-12-17T14:33:27.710Z,35.70
2022-12-17T14:35:57.076Z,32.80
2022-12-17T14:38:48.167Z,44.53
2022-12-17T14:41:33.218Z,30.57
2022-12-17T14:44:04.088Z,30.43
2022-12-17T14:46:34.341Z,30.13
2022-12-17T14:49:05.960Z,29.40
2022-12-17T14:51:36.740Z,35.17
2022-12-17T14:54:18.481Z,33.00
2022-12-17T14:56:48.599Z,31.57
2022-12-17T14:59:26.679Z,32.27
2022-12-17T15:01:56.577Z,32.13
2022-12-17T15:04:25.338Z,32.97
2022-12-17T15:06:55.900Z,33.33
2022-12-17T15:09:24.334Z,34.70
2022-12-17T15:11:52.898Z,34.47
2022-12-17T15:14:21.149Z,32.70
2022-12-17T15:16:50.960Z,32.70
2022-12-17T15:19:19.335Z,34.50
2022-12-17T15:21:47.819Z,35.43
2022-12-17T15:24:20.262Z,33.83
2022-12-17T15:26:48.991Z,37.73
2022-12-17T15:29:17.564Z,33.43
2022-12-17T15:31:45.792Z,32.97
2022-12-17T15:34:15.650Z,32.70
2022-12-17T15:36:44.127Z,33.90
2022-12-17T15:39:12.586Z,35.23
2022-12-17T15:41:58.195Z,34.37
2022-12-17T15:44:26.563Z,34.50
2022-12-17T15:46:54.952Z,34.73
2022-12-17T15:49:24.604Z,37.70
2022-12-17T15:51:52.829Z,35.50
2022-12-17T15:54:21.262Z,35.77
2022-12-17T15:56:54.324Z,38.57
2022-12-17T15:59:22.940Z,36.50
2022-12-17T16:01:51.302Z,34.07
2022-12-17T16:04:24.983Z,36.47
2022-12-17T16:06:55.545Z,33.80
2022-12-17T16:09:25.966Z,37.50
2022-12-17T16:11:55.239Z,37.60
2022-12-17T16:14:24.016Z,36.10
2022-12-17T16:16:52.694Z,37.20
2022-12-17T16:19:20.949Z,39.57
2022-12-17T16:21:49.165Z,42.00
2022-12-17T16:24:19.101Z,38.30
2022-12-17T16:26:47.389Z,32.87
2022-12-17T16:29:15.889Z,33.83
2022-12-17T16:31:44.475Z,34.40
2022-12-17T16:34:13.978Z,35.80
2022-12-17T16:36:42.286Z,33.93
2022-12-17T16:39:16.769Z,35.33
2022-12-17T16:41:47.206Z,34.97
2022-12-17T16:44:15.406Z,35.27
2022-12-17T16:46:46.389Z,33.63
2022-12-17T16:49:18.110Z,40.37
2022-12-17T16:51:57.867Z,41.37
2022-12-17T16:54:30.487Z,33.13
2022-12-17T16:57:00.250Z,33.90
2022-12-17T16:59:29.295Z,35.00
2022-12-17T17:01:58.260Z,41.53
2022-12-17T17:04:26.595Z,36.43
2022-12-17T17:06:56.590Z,34.70
2022-12-17T17:09:25.858Z,36.23
2022-12-17T17:11:57.782Z,35.90
2022-12-17T17:14:28.115Z,37.03
2022-12-17T17:16:56.424Z,36.37
2022-12-17T17:19:24.749Z,37.57
2022-12-17T17:21:54.517Z,39.53
2022-12-17T17:24:25.553Z,39.50
2022-12-17T17:26:55.095Z,41.23
2022-12-17T17:29:23.830Z,37.90
2022-12-17T17:32:11.024Z,36.57
2022-12-17T17:34:40.566Z,41.40
2022-12-17T17:37:09.053Z,40.77
2022-12-17T17:39:37.613Z,41.87
2022-12-17T17:42:06.488Z,75.83
2022-12-17T17:44:35.171Z,41.30
2022-12-17T17:47:05.145Z,51.30
2022-12-17T17:49:33.553Z,41.97
2022-12-17T17:52:10.836Z,42.40
2022-12-17T17:54:40.219Z,42.90
2022-12-17T17:57:09.125Z,41.77
2022-12-17T17:59:39.644Z,45.70
2022-12-17T18:02:11.899Z,47.87
2022-12-17T18:04:40.980Z,39.93
2022-12-17T18:07:27.946Z,46.80
2022-12-17T18:09:57.106Z,43.70
2022-12-17T18:12:42.963Z,40.33
2022-12-17T18:15:14.831Z,42.37
2022-12-17T18:17:46.160Z,38.53
2022-12-17T18:20:14.816Z,40.73
2022-12-17T18:22:43.299Z,36.33
2022-12-17T18:25:11.612Z,37.67
2022-12-17T18:27:40.150Z,38.73
2022-12-17T18:30:09.579Z,38.57
2022-12-17T18:32:38.088Z,40.57
2022-12-17T18:35:09.017Z,38.83
2022-12-17T18:37:37.860Z,39.00
2022-12-17T18:40:07.524Z,45.73
2022-12-17T18:42:53.347Z,40.57
2022-12-17T18:45:21.838Z,42.50
2022-12-17T18:47:51.867Z,39.83
2022-12-17T18:50:21.587Z,38.70
2022-12-17T18:52:50.424Z,49.30
2022-12-17T18:55:18.950Z,38.07
2022-12-17T18:57:47.567Z,37.43
2022-12-17T19:00:16.197Z,39.90
2022-12-17T19:02:45.097Z,39.03
2022-12-17T19:05:13.527Z,38.63
2022-12-17T19:07:43.334Z,39.93
2022-12-17T19:10:11.926Z,41.77
2022-12-17T19:12:40.195Z,38.13
2022-12-17T19:15:09.949Z,37.70
2022-12-17T19:17:38.964Z,39.50
2022-12-17T19:20:08.358Z,38.10
2022-12-17T19:22:36.695Z,41.00
2022-12-17T19:25:06.826Z,40.30
2022-12-17T19:27:35.127Z,40.00
2022-12-17T19:30:03.783Z,39.10
2022-12-17T19:32:32.364Z,37.33
2022-12-17T19:35:00.623Z,40.07
2022-12-17T19:37:28.949Z,41.17
2022-12-17T19:39:57.253Z,39.80
2022-12-17T19:42:31.947Z,41.20
2022-12-17T19:45:05.405Z,42.50
2022-12-17T19:47:33.682Z,41.93
2022-12-17T19:50:02.971Z,41.80
2022-12-17T19:52:31.581Z,42.83
2022-12-17T19:55:00.015Z,40.03
2022-12-17T19:57:29.960Z,39.03
2022-12-17T19:59:58.370Z,38.47
2022-12-17T20:02:32.309Z,42.00
2022-12-17T20:05:01.798Z,44.33
2022-12-17T20:07:30.172Z,40.73
2022-12-17T20:09:58.494Z,43.20
2022-12-17T20:12:26.814Z,44.17
2022-12-17T20:14:56.442Z,43.47
2022-12-17T20:17:26.045Z,44.87
2022-12-17T20:19:56.442Z,64.27
2022-12-17T20:22:26.299Z,41.97
2022-12-17T20:24:54.554Z,42.13
2022-12-17T20:27:22.965Z,41.83
2022-12-17T20:29:51.478Z,43.60
2022-12-17T20:32:21.441Z,40.20
2022-12-17T20:34:49.985Z,44.60
2022-12-17T20:37:18.347Z,42.23
2022-12-17T20:39:46.657Z,41.60
2022-12-17T20:42:14.892Z,44.10
2022-12-17T20:44:43.150Z,44.20
2022-12-17T20:47:11.809Z,41.27
2022-12-17T20:49:41.445Z,41.33
2022-12-17T20:52:09.674Z,42.70
2022-12-17T20:54:37.986Z,42.33
2022-12-17T20:57:06.336Z,40.63
2022-12-17T20:59:34.765Z,42.77
2022-12-17T21:02:03.169Z,41.70
2022-12-17T21:04:31.690Z,44.37
2022-12-17T21:07:01.718Z,42.10
2022-12-17T21:09:30.031Z,41.13
2022-12-17T21:11:58.562Z,44.03
2022-12-17T21:14:31.981Z,41.67
2022-12-17T21:17:05.166Z,38.20
2022-12-17T21:19:33.791Z,41.70
2022-12-17T21:22:03.542Z,40.67
2022-12-17T21:24:31.735Z,40.40
2022-12-17T21:27:00.020Z,41.93
2022-12-17T21:29:28.376Z,41.30
2022-12-17T21:31:56.732Z,39.13
2022-12-17T21:34:29.166Z,43.53
2022-12-17T21:36:57.392Z,42.47
2022-12-17T21:39:27.202Z,40.70
2022-12-17T21:42:12.949Z,43.47
2022-12-17T21:44:41.181Z,42.17
2022-12-17T21:47:09.594Z,40.43
2022-12-17T21:49:37.895Z,42.10
2022-12-17T21:52:07.438Z,42.43
2022-12-17T21:54:40.422Z,40.50
2022-12-17T21:57:09.035Z,38.93
2022-12-17T21:59:37.327Z,42.60
2022-12-17T22:02:05.771Z,38.90
2022-12-17T22:04:34.350Z,46.10
2022-12-17T22:07:10.461Z,40.10
2022-12-17T22:10:10.041Z,40.43
2022-12-17T22:12:45.199Z,38.27
2022-12-17T22:15:13.453Z,39.07
2022-12-17T22:17:42.316Z,37.53
2022-12-17T22:20:11.858Z,37.10
2022-12-17T22:22:40.065Z,36.63
2022-12-17T22:25:11.221Z,38.63
2022-12-17T22:27:40.179Z,36.30
2022-12-17T22:30:30.892Z,34.40
2022-12-17T22:33:02.874Z,35.23
2022-12-17T22:37:15.567Z,36.63
2022-12-17T22:41:49.965Z,36.13
2022-12-17T22:44:38.823Z,36.90
2022-12-17T22:44:52.112Z,35.73
2022-12-17T22:47:12.972Z,34.07
2022-12-17T22:49:43.744Z,36.20
2022-12-17T22:52:12.916Z,33.97
2022-12-17T22:54:41.619Z,36.67
2022-12-17T22:57:34.599Z,36.83
2022-12-17T22:59:59.980Z,38.53
2022-12-17T23:02:28.534Z,37.20
2022-12-17T23:04:56.950Z,36.37
2022-12-17T23:07:30.040Z,36.10
2022-12-17T23:10:00.207Z,35.77
2022-12-17T23:12:47.476Z,36.33
2022-12-17T23:15:15.746Z,36.13
2022-12-17T23:17:43.942Z,34.77
2022-12-17T23:20:13.273Z,33.33
2022-12-17T23:22:41.666Z,35.67
2022-12-17T23:25:10.670Z,37.00
2022-12-17T23:27:40.341Z,36.07
2022-12-17T23:30:09.478Z,35.63
2022-12-17T23:32:37.863Z,37.20
2022-12-17T23:35:07.004Z,67.53
2022-12-17T23:37:39.504Z,41.17
2022-12-17T23:40:09.709Z,41.03
2022-12-17T23:42:37.962Z,38.97
2022-12-17T23:45:11.140Z,37.87
2022-12-17T23:47:40.336Z,39.47
2022-12-17T23:50:10.816Z,38.70
2022-12-17T23:52:39.335Z,37.47
2022-12-17T23:55:08.100Z,36.20
2022-12-17T23:57:36.320Z,41.63
